IDs: Format: Raw Decoded Include TAF

Data at: 1438 UTC 17 Mar 2018

KGLW 171410Z AUTO 21005KT 10SM SCT010 BKN017 OVC029 A2986 RMK AO2
KGLW 171350Z AUTO 21007KT 10SM OVC028 A2987 RMK AO2
KGLW 171330Z AUTO 23005KT 10SM OVC026 A2987 RMK AO2
KGLW 171310Z AUTO 22006KT 10SM BKN028 A2986 RMK AO2 LTG DSNT SE
KGLW 171250Z AUTO 20005KT 10SM SCT028 A2983 RMK AO2
KGLW 171230Z AUTO 21004KT 5SM HZ SCT028 A2984 RMK AO2
KGLW 171150Z AUTO 22005KT 10SM CLR A2985 RMK AO2 60011 70011
KGLW 171130Z AUTO 23005KT 10SM CLR A2985 RMK AO2
KGLW 171050Z AUTO 22005KT 10SM SCT070 BKN120 A2985 RMK AO2
KGLW 171030Z AUTO 21004KT 10SM SCT070 OVC110 A2984 RMK AO2 LTG DSNT SE
KGLW 170950Z AUTO 21003KT 10SM SCT012 SCT023 BKN100 A2984 RMK AO2 LTG DSNT SE AND S P0004
KGLW 170930Z AUTO 24004KT 10SM SCT013 BKN060 OVC090 A2984 RMK AO2 P0003
KGLW 170910Z AUTO 18012G20KT 7SM VCTSRA SCT040 SCT050 OVC075 A2979 RMK AO2 LTG DSNT E AND S P0002
KGLW 170850Z AUTO 20009G14KT 7SM VCTSRA SCT019 BKN038 OVC050 13/11 A2984 RMK AO2 LTG DSNT ALQS P0005 60005 T01250105
KGLW 170830Z AUTO 21004KT 10SM -RA OVC021 12/07 A2987 RMK AO2 LTG DSNT E AND SW T01230071
KGLW 170810Z AUTO 18003KT 10SM OVC021 13/07 A2985 RMK AO2 T01280066
KGLW 170750Z AUTO 21003KT 10SM OVC023 12/06 A2987 RMK AO2 LTG DSNT W T01240057
KGLW 170730Z AUTO 15003KT 10SM OVC023 12/04 A2985 RMK AO2 T01200043
KGLW 170710Z AUTO 00000KT 10SM OVC023 11/02 A2988 RMK AO2 T01140022
KGLW 170650Z AUTO 13003KT 10SM OVC025 10/03 A2989 RMK AO2 T01010025
KGLW 170630Z AUTO 00000KT 10SM BKN027 OVC033 10/01 A2991 RMK AO2 T01000008
KGLW 170610Z AUTO 00000KT 10SM BKN032 BKN040 OVC045 10/00 A2991 RMK AO2 T01010001
KGLW 170550Z AUTO 10003KT 10SM SCT046 BKN060 OVC070 09/00 A2991 RMK AO2 T00920001 10106 20075
KGLW 170530Z AUTO 00000KT 10SM BKN060 BKN080 09/M01 A2992 RMK AO2 T00891011
KGLW 170510Z AUTO 00000KT 10SM SCT080 SCT110 08/M02 A2993 RMK AO2 T00801024
KGLW 170450Z AUTO 09004KT 10SM SCT036 SCT110 08/M02 A2993 RMK AO2 T00761022
KGLW 170430Z AUTO 08005KT 10SM SCT036 SCT075 BKN110 08/M02 A2995 RMK AO2 T00831025
KGLW 170410Z AUTO 00000KT 10SM SCT075 BKN100 OVC110 09/M02 A2996 RMK AO2 T00901023
KGLW 170350Z AUTO 09005KT 10SM SCT100 BKN120 08/M02 A2996 RMK AO2 T00791024 401410022
KGLW 170330Z AUTO 09004KT 10SM SCT100 BKN120 08/M01 A2996 RMK AO2 T00831014
KGLW 170310Z AUTO 00000KT 10SM BKN100 OVC120 10/M03 A2998 RMK AO2 T00951031
KGLW 170250Z AUTO 08005KT 10SM OVC100 10/M03 A2996 RMK AO2 T00951033
KGLW 170230Z AUTO 07005KT 10SM OVC100 09/M03 A2996 RMK AO2 T00941031
KGLW 170210Z AUTO 06006KT 10SM BKN100 10/M03 A2996 RMK AO2 T00951032
KGLW 170150Z AUTO 05006KT 10SM BKN100 10/M03 A2996 RMK AO2 T00951031
KGLW 170130Z AUTO 06007KT 10SM BKN100 10/M03 A2996 RMK AO2 T00981031
KGLW 170110Z AUTO 05007KT 10SM BKN110 10/M03 A2996 RMK AO2 T01021028
KGLW 170050Z AUTO 07007KT 10SM OVC110 11/M03 A2997 RMK AO2 T01051031
KGLW 170030Z AUTO 06007KT 10SM OVC100 11/M02 A2997 RMK AO2 T01051022
KGLW 170010Z AUTO 06006KT 10SM BKN100 10/M02 A2998 RMK AO2 T01041022
KGLW 162350Z AUTO 05007KT 10SM CLR 11/M02 A2998 RMK AO2 T01101025 10141 20105
KGLW 162330Z AUTO 05007KT 10SM CLR 12/M02 A2998 RMK AO2 T01171025
KGLW 162310Z AUTO 06006KT 10SM CLR 12/M03 A2999 RMK AO2 T01221026
KGLW 162250Z AUTO 08008KT 10SM CLR 13/M02 A3000 RMK AO2 T01291025
KGLW 162230Z AUTO 07008KT 10SM CLR 14/M03 A3001 RMK AO2 T01361029
KGLW 162210Z AUTO 06009KT 10SM CLR 14/M03 A3001 RMK AO2 T01371032
KGLW 162150Z AUTO 07008KT 10SM CLR 14/M03 A3001 RMK AO2 T01401033
KGLW 162130Z AUTO 06009KT 10SM CLR 13/M03 A3001 RMK AO2 T01291031
KGLW 162110Z AUTO 06007KT 10SM CLR 14/M03 A3003 RMK AO2 T01381034
KGLW 162050Z AUTO 07007KT 10SM CLR 13/M03 A3002 RMK AO2 T01281032
KGLW 162030Z AUTO 06010KT 10SM CLR 13/M03 A3003 RMK AO2 T01281034
KGLW 162010Z AUTO 06007KT 10SM CLR 13/M04 A3003 RMK AO2 T01281040
KGLW 161950Z AUTO 07009KT 10SM CLR 13/M04 A3004 RMK AO2 T01321039
KGLW 161930Z AUTO 07008KT 10SM CLR 13/M03 A3005 RMK AO2 T01321030
KGLW 161910Z AUTO 08008KT 10SM CLR 13/M03 A3005 RMK AO2 T01291028
KGLW 161850Z AUTO 05007KT 10SM CLR 12/M03 A3006 RMK AO2 T01241026
KGLW 161830Z AUTO 07007KT 030V100 10SM CLR 11/M03 A3007 RMK AO2 T01111026
KGLW 161810Z AUTO 05007KT 10SM CLR 11/M03 A3008 RMK AO2 T01111026
KGLW 161750Z AUTO 05006KT 10SM CLR 10/M03 A3008 RMK AO2 T01011028 10106 20033
KGLW 161730Z AUTO 03006KT 10SM CLR 11/M02 A3009 RMK AO2 T01061022
KGLW 161710Z AUTO 08010KT 10SM CLR 10/M02 A3009 RMK AO2 T01041023
KGLW 161650Z AUTO 06011KT 10SM CLR 09/M02 A3010 RMK AO2 T00931020
KGLW 161630Z AUTO 05009G16KT 10SM CLR 08/M02 A3010 RMK AO2 T00841020
KGLW 161610Z AUTO 06011G15KT 10SM SCT120 08/M02 A3010 RMK AO2 T00751022
KGLW 161550Z AUTO 06007KT 10SM SCT120 07/M02 A3011 RMK AO2 T00711022
KGLW 161530Z AUTO 04007KT 020V090 10SM CLR 07/M02 A3011 RMK AO2 T00721020
KGLW 161510Z AUTO 05008KT 10SM CLR 06/M02 A3011 RMK AO2 T00621023
KGLW 161450Z AUTO 06010KT 10SM CLR 05/M03 A3010 RMK AO2 T00531029
KGLW 161430Z AUTO 07013G17KT 10SM CLR 06/M03 A3010 RMK AO2 T00621035
KGLW 161410Z AUTO 07011G17KT 10SM CLR 05/M03 A3010 RMK AO2 T00511035
KGLW 161350Z AUTO 06014KT 10SM CLR 05/M03 A3009 RMK AO2 T00451034
KGLW 161330Z AUTO 06012G17KT 10SM CLR 05/M03 A3008 RMK AO2 T00451031
KGLW 161310Z AUTO 06011G16KT 10SM CLR 04/M03 A3008 RMK AO2 T00411028
KGLW 161250Z AUTO 05010G16KT 10SM CLR 04/M03 A3007 RMK AO2 T00381029
KGLW 161230Z AUTO 05010G15KT 10SM CLR 04/M02 A3006 RMK AO2 T00351023
KGLW 161210Z AUTO 05008KT 10SM CLR 03/M02 A3005 RMK AO2 T00331023
KGLW 161150Z AUTO 05009KT 10SM CLR 04/M03 A3005 RMK AO2 T00371026 10073 20022
KGLW 161130Z AUTO 05010KT 10SM CLR 04/M02 A3003 RMK AO2 T00431021
KGLW 161110Z AUTO 05009KT 10SM CLR 05/M02 A3002 RMK AO2 T00511020
KGLW 161050Z AUTO 04010G14KT 10SM CLR 06/M01 A3001 RMK AO2 T00591013
KGLW 161030Z AUTO 05007KT 10SM CLR 06/00 A2999 RMK AO2 T00561002
KGLW 161010Z AUTO 05005KT 10SM CLR 06/00 A2998 RMK AO2 T00560000
KGLW 160950Z AUTO 05004KT 10SM CLR 06/00 A2998 RMK AO2 T00620000
KGLW 160930Z AUTO 05005KT 10SM CLR 06/01 A2997 RMK AO2 T00620005
KGLW 160910Z AUTO 04005KT 10SM CLR 07/01 A2996 RMK AO2 T00690008
KGLW 160850Z AUTO 00000KT 10SM CLR 03/01 A2996 RMK AO2 T00270007
KGLW 160830Z AUTO 00000KT 10SM CLR 04/01 A2996 RMK AO2 T00410010
KGLW 160810Z AUTO 00000KT 10SM CLR 02/01 A2996 RMK AO2 T00230007
KGLW 160750Z AUTO 00000KT 10SM CLR 04/01 A2995 RMK AO2 T00370011
KGLW 160730Z AUTO 00000KT 10SM CLR 04/01 A2995 RMK AO2 T00380009
KGLW 160710Z AUTO 00000KT 10SM CLR 04/01 A2994 RMK AO2 T00380010
KGLW 160650Z AUTO 00000KT 10SM CLR 04/01 A2994 RMK AO2 T00430011
KGLW 160630Z AUTO 00000KT 10SM CLR 05/01 A2994 RMK AO2 T00470011
KGLW 160610Z AUTO 00000KT 10SM CLR 06/01 A2993 RMK AO2 T00550010
KGLW 160550Z AUTO 00000KT 10SM CLR 06/01 A2993 RMK AO2 T00570009 10155 20057
KGLW 160530Z AUTO 00000KT 10SM CLR 08/01 A2992 RMK AO2 T00780006
KGLW 160510Z AUTO 00000KT 10SM CLR 07/01 A2992 RMK AO2 T00720010
KGLW 160450Z AUTO 00000KT 10SM CLR 08/01 A2992 RMK AO2 T00760010
KGLW 160430Z AUTO 00000KT 10SM CLR 09/01 A2991 RMK AO2 T00920005
KGLW 160410Z AUTO 00000KT 10SM SCT120 09/01 A2991 RMK AO2 T00850009
KGLW 160350Z AUTO 00000KT 10SM CLR 10/01 A2990 RMK AO2 T00960007 401950005
KGLW 160330Z AUTO 24003KT 10SM CLR 11/01 A2990 RMK AO2 T01050006
KGLW 160310Z AUTO 00000KT 10SM SCT120 11/00 A2989 RMK AO2 T01120004
KGLW 160250Z AUTO 00000KT 10SM SCT120 10/01 A2989 RMK AO2 T00990008